sensor_id;sensor_type;location;lat;lon;timestamp;pressure;altitude;pressure_sealevel;temperature;humidity
70407;BME280;57821;52.202;0.154;2023-02-11T00:00:40;103505.34;;;5.63;86.88
70407;BME280;57821;52.202;0.154;2023-02-11T00:03:07;103507.13;;;5.64;87.05
70407;BME280;57821;52.202;0.154;2023-02-11T00:05:34;103503.56;;;5.62;87.16
70407;BME280;57821;52.202;0.154;2023-02-11T00:08:00;103502.56;;;5.60;86.73
70407;BME280;57821;52.202;0.154;2023-02-11T00:10:27;103506.75;;;5.58;87.81
70407;BME280;57821;52.202;0.154;2023-02-11T00:12:54;103503.97;;;5.55;87.29
70407;BME280;57821;52.202;0.154;2023-02-11T00:15:20;103504.75;;;5.54;87.40
70407;BME280;57821;52.202;0.154;2023-02-11T00:17:47;103501.03;;;5.49;86.78
70407;BME280;57821;52.202;0.154;2023-02-11T00:20:13;103512.94;;;5.47;87.11
70407;BME280;57821;52.202;0.154;2023-02-11T00:22:40;103505.81;;;5.43;87.33
70407;BME280;57821;52.202;0.154;2023-02-11T00:25:07;103499.59;;;5.40;86.81
70407;BME280;57821;52.202;0.154;2023-02-11T00:27:35;103499.50;;;5.38;88.28
70407;BME280;57821;52.202;0.154;2023-02-11T00:30:02;103502.06;;;5.38;88.71
70407;BME280;57821;52.202;0.154;2023-02-11T00:32:29;103498.72;;;5.39;89.55
70407;BME280;57821;52.202;0.154;2023-02-11T00:34:56;103502.28;;;5.41;89.96
70407;BME280;57821;52.202;0.154;2023-02-11T00:37:22;103498.88;;;5.42;89.82
70407;BME280;57821;52.202;0.154;2023-02-11T00:39:49;103502.44;;;5.44;90.09
70407;BME280;57821;52.202;0.154;2023-02-11T00:42:15;103489.69;;;5.46;89.88
70407;BME280;57821;52.202;0.154;2023-02-11T00:44:43;103497.50;;;5.47;89.83
70407;BME280;57821;52.202;0.154;2023-02-11T00:47:10;103495.88;;;5.49;89.66
70407;BME280;57821;52.202;0.154;2023-02-11T00:49:36;103494.31;;;5.51;91.14
70407;BME280;57821;52.202;0.154;2023-02-11T00:52:03;103485.00;;;5.53;91.25
70407;BME280;57821;52.202;0.154;2023-02-11T00:54:30;103492.09;;;5.57;91.32
70407;BME280;57821;52.202;0.154;2023-02-11T00:56:56;103487.06;;;5.59;91.75
70407;BME280;57821;52.202;0.154;2023-02-11T00:59:23;103494.25;;;5.64;91.24
70407;BME280;57821;52.202;0.154;2023-02-11T01:01:50;103476.22;;;5.64;91.33
70407;BME280;57821;52.202;0.154;2023-02-11T01:04:16;103484.31;;;5.70;91.94
70407;BME280;57821;52.202;0.154;2023-02-11T01:06:43;103494.00;;;5.74;92.05
70407;BME280;57821;52.202;0.154;2023-02-11T01:09:09;103492.41;;;5.76;92.80
70407;BME280;57821;52.202;0.154;2023-02-11T01:11:36;103496.13;;;5.82;92.07
70407;BME280;57821;52.202;0.154;2023-02-11T01:14:03;103489.47;;;5.85;93.04
70407;BME280;57821;52.202;0.154;2023-02-11T01:16:29;103494.91;;;5.90;93.14
70407;BME280;57821;52.202;0.154;2023-02-11T01:18:56;103485.69;;;5.93;93.10
70407;BME280;57821;52.202;0.154;2023-02-11T01:21:22;103487.66;;;5.97;93.36
70407;BME280;57821;52.202;0.154;2023-02-11T01:23:49;103491.28;;;6.01;93.02
70407;BME280;57821;52.202;0.154;2023-02-11T01:26:18;103493.06;;;6.02;92.75
70407;BME280;57821;52.202;0.154;2023-02-11T01:28:45;103489.69;;;6.03;93.09
70407;BME280;57821;52.202;0.154;2023-02-11T01:31:11;103489.78;;;6.04;93.36
70407;BME280;57821;52.202;0.154;2023-02-11T01:33:38;103486.56;;;6.08;93.45
70407;BME280;57821;52.202;0.154;2023-02-11T01:36:06;103479.84;;;6.10;94.18
70407;BME280;57821;52.202;0.154;2023-02-11T01:38:33;103484.25;;;6.13;93.45
70407;BME280;57821;52.202;0.154;2023-02-11T01:41:05;103485.25;;;6.15;93.09
70407;BME280;57821;52.202;0.154;2023-02-11T01:43:36;103487.09;;;6.17;93.94
70407;BME280;57821;52.202;0.154;2023-02-11T01:46:27;103488.19;;;6.21;94.41
70407;BME280;57821;52.202;0.154;2023-02-11T01:49:00;103479.28;;;6.16;93.69
70407;BME280;57821;52.202;0.154;2023-02-11T01:54:24;103479.91;;;6.27;93.69
70407;BME280;57821;52.202;0.154;2023-02-11T01:56:54;103465.09;;;6.23;93.75
70407;BME280;57821;52.202;0.154;2023-02-11T01:59:29;103475.81;;;6.30;93.33
70407;BME280;57821;52.202;0.154;2023-02-11T02:02:00;103471.44;;;6.29;93.67
70407;BME280;57821;52.202;0.154;2023-02-11T02:04:38;103456.81;;;6.28;94.51
70407;BME280;57821;52.202;0.154;2023-02-11T02:07:11;103454.38;;;6.31;94.63
70407;BME280;57821;52.202;0.154;2023-02-11T02:09:43;103471.09;;;6.38;95.03
70407;BME280;57821;52.202;0.154;2023-02-11T02:12:13;103465.38;;;6.43;94.56
70407;BME280;57821;52.202;0.154;2023-02-11T02:14:41;103469.09;;;6.48;94.88
70407;BME280;57821;52.202;0.154;2023-02-11T02:17:24;103471.03;;;6.52;95.23
70407;BME280;57821;52.202;0.154;2023-02-11T02:36:15;103451.56;;;6.88;95.04
70407;BME280;57821;52.202;0.154;2023-02-11T02:38:54;103443.91;;;6.90;95.28
70407;BME280;57821;52.202;0.154;2023-02-11T02:41:29;103444.13;;;6.94;94.99
70407;BME280;57821;52.202;0.154;2023-02-11T02:43:57;103455.78;;;7.03;95.12
70407;BME280;57821;52.202;0.154;2023-02-11T02:46:32;103452.53;;;7.07;94.48
70407;BME280;57821;52.202;0.154;2023-02-11T02:48:59;103450.19;;;7.11;94.75
70407;BME280;57821;52.202;0.154;2023-02-11T02:51:50;103447.88;;;7.16;94.57
70407;BME280;57821;52.202;0.154;2023-02-11T03:03:11;103444.53;;;7.34;95.20
70407;BME280;57821;52.202;0.154;2023-02-11T03:06:02;103435.06;;;7.33;94.75
70407;BME280;57821;52.202;0.154;2023-02-11T03:08:37;103434.31;;;7.36;94.43
70407;BME280;57821;52.202;0.154;2023-02-11T03:11:06;103436.56;;;7.46;95.07
70407;BME280;57821;52.202;0.154;2023-02-11T03:13:35;103442.69;;;7.48;94.37
70407;BME280;57821;52.202;0.154;2023-02-11T03:16:12;103432.22;;;7.45;94.76
70407;BME280;57821;52.202;0.154;2023-02-11T03:18:43;103438.56;;;7.52;94.07
70407;BME280;57821;52.202;0.154;2023-02-11T03:21:12;103422.94;;;7.49;94.09
70407;BME280;57821;52.202;0.154;2023-02-11T03:23:48;103426.47;;;7.51;94.12
70407;BME280;57821;52.202;0.154;2023-02-11T03:26:47;103423.25;;;7.55;94.32
70407;BME280;57821;52.202;0.154;2023-02-11T03:32:22;103429.06;;;7.51;93.50
70407;BME280;57821;52.202;0.154;2023-02-11T03:34:57;103430.19;;;7.56;93.51
70407;BME280;57821;52.202;0.154;2023-02-11T03:40:17;103430.97;;;7.55;94.03
70407;BME280;57821;52.202;0.154;2023-02-11T03:42:48;103429.28;;;7.55;93.65
70407;BME280;57821;52.202;0.154;2023-02-11T03:45:18;103430.81;;;7.52;93.63
70407;BME280;57821;52.202;0.154;2023-02-11T03:47:51;103449.19;;;7.58;93.31
70407;BME280;57821;52.202;0.154;2023-02-11T03:50:20;103452.75;;;7.60;93.54
70407;BME280;57821;52.202;0.154;2023-02-11T03:52:48;103458.00;;;7.61;93.87
70407;BME280;57821;52.202;0.154;2023-02-11T03:55:17;103444.03;;;7.58;93.85
70407;BME280;57821;52.202;0.154;2023-02-11T03:57:45;103448.72;;;7.65;94.04
70407;BME280;57821;52.202;0.154;2023-02-11T04:00:12;103446.22;;;7.66;93.64
70407;BME280;57821;52.202;0.154;2023-02-11T04:02:39;103448.88;;;7.68;93.25
70407;BME280;57821;52.202;0.154;2023-02-11T04:05:12;103436.59;;;7.64;93.25
70407;BME280;57821;52.202;0.154;2023-02-11T04:07:39;103455.00;;;7.70;93.47
70407;BME280;57821;52.202;0.154;2023-02-11T04:10:06;103456.78;;;7.71;92.88
70407;BME280;57821;52.202;0.154;2023-02-11T04:12:33;103456.78;;;7.71;93.42
70407;BME280;57821;52.202;0.154;2023-02-11T04:15:00;103453.28;;;7.70;92.82
70407;BME280;57821;52.202;0.154;2023-02-11T04:17:26;103448.03;;;7.69;93.03
70407;BME280;57821;52.202;0.154;2023-02-11T04:19:52;103443.63;;;7.66;92.69
70407;BME280;57821;52.202;0.154;2023-02-11T04:22:19;103450.34;;;7.63;92.38
70407;BME280;57821;52.202;0.154;2023-02-11T04:24:45;103459.69;;;7.61;92.54
70407;BME280;57821;52.202;0.154;2023-02-11T04:27:12;103468.09;;;7.57;92.41
70407;BME280;57821;52.202;0.154;2023-02-11T04:29:38;103469.53;;;7.52;91.83
70407;BME280;57821;52.202;0.154;2023-02-11T04:32:05;103471.75;;;7.44;91.53
70407;BME280;57821;52.202;0.154;2023-02-11T04:34:32;103472.31;;;7.38;91.41
70407;BME280;57821;52.202;0.154;2023-02-11T04:36:58;103468.44;;;7.30;91.41
70407;BME280;57821;52.202;0.154;2023-02-11T04:39:25;103459.38;;;7.22;92.03
70407;BME280;57821;52.202;0.154;2023-02-11T04:41:51;103461.69;;;7.16;91.51
70407;BME280;57821;52.202;0.154;2023-02-11T04:44:18;103464.78;;;7.11;92.07
70407;BME280;57821;52.202;0.154;2023-02-11T04:46:44;103464.31;;;7.01;91.46
70407;BME280;57821;52.202;0.154;2023-02-11T04:49:15;103473.41;;;6.95;92.05
70407;BME280;57821;52.202;0.154;2023-02-11T04:51:42;103480.00;;;6.90;91.72
70407;BME280;57821;52.202;0.154;2023-02-11T04:54:10;103471.16;;;6.85;91.77
70407;BME280;57821;52.202;0.154;2023-02-11T04:56:36;103484.50;;;6.78;91.69
70407;BME280;57821;52.202;0.154;2023-02-11T04:59:03;103486.66;;;6.70;91.27
70407;BME280;57821;52.202;0.154;2023-02-11T05:01:30;103486.41;;;6.66;91.75
70407;BME280;57821;52.202;0.154;2023-02-11T05:03:58;103501.72;;;6.63;92.17
70407;BME280;57821;52.202;0.154;2023-02-11T05:06:25;103497.00;;;6.55;91.61
70407;BME280;57821;52.202;0.154;2023-02-11T05:08:51;103510.69;;;6.54;92.48
70407;BME280;57821;52.202;0.154;2023-02-11T05:11:21;103506.97;;;6.49;92.67
70407;BME280;57821;52.202;0.154;2023-02-11T05:13:48;103505.19;;;6.48;92.50
70407;BME280;57821;52.202;0.154;2023-02-11T05:16:15;103504.25;;;6.46;92.38
70407;BME280;57821;52.202;0.154;2023-02-11T05:18:42;103502.38;;;6.44;93.02
70407;BME280;57821;52.202;0.154;2023-02-11T05:21:13;103508.94;;;6.39;93.37
70407;BME280;57821;52.202;0.154;2023-02-11T05:23:40;103508.94;;;6.39;93.70
70407;BME280;57821;52.202;0.154;2023-02-11T05:26:07;103510.53;;;6.37;92.82
70407;BME280;57821;52.202;0.154;2023-02-11T05:28:34;103519.97;;;6.36;92.75
70407;BME280;57821;52.202;0.154;2023-02-11T05:31:01;103507.00;;;6.35;93.24
70407;BME280;57821;52.202;0.154;2023-02-11T05:33:27;103512.06;;;6.33;93.38
70407;BME280;57821;52.202;0.154;2023-02-11T05:35:58;103506.81;;;6.32;93.43
70407;BME280;57821;52.202;0.154;2023-02-11T05:38:25;103504.16;;;6.30;93.06
70407;BME280;57821;52.202;0.154;2023-02-11T05:40:53;103502.38;;;6.29;93.41
70407;BME280;57821;52.202;0.154;2023-02-11T05:43:19;103504.00;;;6.27;94.12
70407;BME280;57821;52.202;0.154;2023-02-11T05:45:46;103497.94;;;6.27;93.31
70407;BME280;57821;52.202;0.154;2023-02-11T05:48:13;103499.78;;;6.29;94.88
70407;BME280;57821;52.202;0.154;2023-02-11T05:50:39;103505.94;;;6.31;94.33
70407;BME280;57821;52.202;0.154;2023-02-11T05:53:06;103504.34;;;6.33;94.92
70407;BME280;57821;52.202;0.154;2023-02-11T05:55:33;103512.22;;;6.36;94.81
70407;BME280;57821;52.202;0.154;2023-02-11T05:57:59;103511.63;;;6.40;94.70
70407;BME280;57821;52.202;0.154;2023-02-11T06:00:26;103510.19;;;6.45;94.98
70407;BME280;57821;52.202;0.154;2023-02-11T06:02:53;103508.66;;;6.49;95.13
70407;BME280;57821;52.202;0.154;2023-02-11T06:05:20;103506.97;;;6.49;94.80
70407;BME280;57821;52.202;0.154;2023-02-11T06:07:46;103506.53;;;6.56;94.47
70407;BME280;57821;52.202;0.154;2023-02-11T06:10:13;103498.94;;;6.59;95.44
70407;BME280;57821;52.202;0.154;2023-02-11T06:12:40;103514.66;;;6.64;94.83
70407;BME280;57821;52.202;0.154;2023-02-11T06:15:06;103526.06;;;6.68;95.18
70407;BME280;57821;52.202;0.154;2023-02-11T06:17:33;103527.03;;;6.70;95.35
70407;BME280;57821;52.202;0.154;2023-02-11T06:20:00;103537.50;;;6.73;95.08
70407;BME280;57821;52.202;0.154;2023-02-11T06:22:26;103528.25;;;6.76;95.28
70407;BME280;57821;52.202;0.154;2023-02-11T06:24:53;103520.59;;;6.78;95.11
70407;BME280;57821;52.202;0.154;2023-02-11T06:27:27;103529.31;;;6.80;95.05
70407;BME280;57821;52.202;0.154;2023-02-11T06:29:54;103532.06;;;6.83;94.55
70407;BME280;57821;52.202;0.154;2023-02-11T06:32:20;103533.94;;;6.85;94.06
70407;BME280;57821;52.202;0.154;2023-02-11T06:35:07;103529.81;;;6.89;94.66
70407;BME280;57821;52.202;0.154;2023-02-11T06:37:37;103536.06;;;6.92;94.23
70407;BME280;57821;52.202;0.154;2023-02-11T06:40:04;103533.53;;;6.94;94.02
70407;BME280;57821;52.202;0.154;2023-02-11T06:42:30;103533.72;;;6.97;94.67
70407;BME280;57821;52.202;0.154;2023-02-11T06:44:57;103529.59;;;7.00;94.06
70407;BME280;57821;52.202;0.154;2023-02-11T06:47:23;103533.16;;;7.03;94.08
70407;BME280;57821;52.202;0.154;2023-02-11T06:49:50;103532.38;;;7.04;94.19
70407;BME280;57821;52.202;0.154;2023-02-11T06:52:16;103524.88;;;7.08;94.15
70407;BME280;57821;52.202;0.154;2023-02-11T06:54:43;103538.75;;;7.10;93.78
70407;BME280;57821;52.202;0.154;2023-02-11T06:57:09;103532.84;;;7.13;93.68
70407;BME280;57821;52.202;0.154;2023-02-11T06:59:36;103532.94;;;7.14;93.75
70407;BME280;57821;52.202;0.154;2023-02-11T07:02:02;103528.75;;;7.16;93.97
70407;BME280;57821;52.202;0.154;2023-02-11T07:04:29;103536.66;;;7.19;93.77
70407;BME280;57821;52.202;0.154;2023-02-11T07:06:55;103542.78;;;7.21;93.72
70407;BME280;57821;52.202;0.154;2023-02-11T07:09:22;103546.31;;;7.23;93.26
70407;BME280;57821;52.202;0.154;2023-02-11T07:11:48;103558.53;;;7.26;94.11
70407;BME280;57821;52.202;0.154;2023-02-11T07:14:15;103554.34;;;7.28;93.83
70407;BME280;57821;52.202;0.154;2023-02-11T07:16:41;103556.84;;;7.26;93.32
70407;BME280;57821;52.202;0.154;2023-02-11T07:19:08;103551.03;;;7.30;93.61
70407;BME280;57821;52.202;0.154;2023-02-11T07:21:34;103546.75;;;7.31;93.92
70407;BME280;57821;52.202;0.154;2023-02-11T07:24:01;103547.66;;;7.31;92.97
70407;BME280;57821;52.202;0.154;2023-02-11T07:26:31;103548.69;;;7.35;93.02
70407;BME280;57821;52.202;0.154;2023-02-11T07:28:57;103548.78;;;7.36;93.33
70407;BME280;57821;52.202;0.154;2023-02-11T07:31:26;103555.81;;;7.39;93.00
70407;BME280;57821;52.202;0.154;2023-02-11T07:33:58;103561.91;;;7.41;93.39
70407;BME280;57821;52.202;0.154;2023-02-11T07:36:25;103562.00;;;7.42;93.32
70407;BME280;57821;52.202;0.154;2023-02-11T07:38:51;103566.38;;;7.43;92.92
70407;BME280;57821;52.202;0.154;2023-02-11T07:41:21;103564.69;;;7.44;92.82
70407;BME280;57821;52.202;0.154;2023-02-11T07:43:48;103570.88;;;7.48;93.07
70407;BME280;57821;52.202;0.154;2023-02-11T07:46:26;103563.00;;;7.45;93.26
70407;BME280;57821;52.202;0.154;2023-02-11T07:48:53;103572.00;;;7.53;93.29
70407;BME280;57821;52.202;0.154;2023-02-11T07:51:22;103556.38;;;7.50;92.88
70407;BME280;57821;52.202;0.154;2023-02-11T07:53:50;103575.72;;;7.58;92.97
70407;BME280;57821;52.202;0.154;2023-02-11T07:56:18;103568.16;;;7.61;92.93
70407;BME280;57821;52.202;0.154;2023-02-11T07:58:46;103580.50;;;7.66;92.96
70407;BME280;57821;52.202;0.154;2023-02-11T08:01:18;103573.47;;;7.64;92.80
70407;BME280;57821;52.202;0.154;2023-02-11T08:03:45;103576.47;;;7.71;92.82
70407;BME280;57821;52.202;0.154;2023-02-11T08:06:14;103571.63;;;7.77;93.14
70407;BME280;57821;52.202;0.154;2023-02-11T08:08:41;103581.38;;;7.83;92.71
70407;BME280;57821;52.202;0.154;2023-02-11T08:11:14;103584.19;;;7.88;92.79
70407;BME280;57821;52.202;0.154;2023-02-11T08:13:41;103593.00;;;7.91;93.15
70407;BME280;57821;52.202;0.154;2023-02-11T08:16:08;103584.59;;;7.95;92.63
70407;BME280;57821;52.202;0.154;2023-02-11T08:18:35;103587.41;;;8.00;92.46
70407;BME280;57821;52.202;0.154;2023-02-11T08:21:06;103574.41;;;7.98;92.23
70407;BME280;57821;52.202;0.154;2023-02-11T08:23:36;103582.66;;;8.07;92.61
70407;BME280;57821;52.202;0.154;2023-02-11T08:26:05;103579.41;;;8.11;91.96
70407;BME280;57821;52.202;0.154;2023-02-11T08:28:34;103577.88;;;8.15;91.68
70407;BME280;57821;52.202;0.154;2023-02-11T08:31:10;103584.88;;;8.17;91.77
70407;BME280;57821;52.202;0.154;2023-02-11T08:33:38;103591.97;;;8.21;91.39
70407;BME280;57821;52.202;0.154;2023-02-11T08:36:13;103585.06;;;8.20;91.44
70407;BME280;57821;52.202;0.154;2023-02-11T08:38:40;103580.34;;;8.30;91.87
70407;BME280;57821;52.202;0.154;2023-02-11T08:41:08;103588.31;;;8.33;91.28
70407;BME280;57821;52.202;0.154;2023-02-11T08:43:35;103591.91;;;8.36;91.00
70407;BME280;57821;52.202;0.154;2023-02-11T08:46:02;103600.78;;;8.41;90.72
70407;BME280;57821;52.202;0.154;2023-02-11T08:48:29;103612.16;;;8.45;90.92
70407;BME280;57821;52.202;0.154;2023-02-11T08:50:56;103617.59;;;8.49;90.35
70407;BME280;57821;52.202;0.154;2023-02-11T08:53:23;103618.59;;;8.53;90.73
70407;BME280;57821;52.202;0.154;2023-02-11T08:55:51;103608.47;;;8.57;90.26
70407;BME280;57821;52.202;0.154;2023-02-11T08:58:19;103606.06;;;8.60;90.03
70407;BME280;57821;52.202;0.154;2023-02-11T09:00:47;103608.78;;;8.63;89.90
70407;BME280;57821;52.202;0.154;2023-02-11T09:03:15;103606.28;;;8.65;90.13
70407;BME280;57821;52.202;0.154;2023-02-11T09:05:47;103607.47;;;8.72;89.74
70407;BME280;57821;52.202;0.154;2023-02-11T09:08:15;103607.69;;;8.76;89.55
70407;BME280;57821;52.202;0.154;2023-02-11T09:10:42;103597.56;;;8.81;89.38
70407;BME280;57821;52.202;0.154;2023-02-11T09:13:09;103596.09;;;8.86;89.10
70407;BME280;57821;52.202;0.154;2023-02-11T09:15:35;103600.53;;;8.88;89.01
70407;BME280;57821;52.202;0.154;2023-02-11T09:18:03;103611.00;;;8.91;88.78
70407;BME280;57821;52.202;0.154;2023-02-11T09:20:30;103623.31;;;8.95;89.33
70407;BME280;57821;52.202;0.154;2023-02-11T09:22:57;103617.47;;;8.99;88.95
70407;BME280;57821;52.202;0.154;2023-02-11T09:25:24;103603.03;;;9.04;88.43
70407;BME280;57821;52.202;0.154;2023-02-11T09:27:51;103601.41;;;9.06;88.53
70407;BME280;57821;52.202;0.154;2023-02-11T09:30:18;103596.38;;;9.10;88.48
70407;BME280;57821;52.202;0.154;2023-02-11T09:32:44;103608.66;;;9.14;87.88
70407;BME280;57821;52.202;0.154;2023-02-11T09:35:11;103607.00;;;9.16;87.98
70407;BME280;57821;52.202;0.154;2023-02-11T09:37:37;103607.97;;;9.18;87.74
70407;BME280;57821;52.202;0.154;2023-02-11T09:40:04;103602.13;;;9.22;87.43
70407;BME280;57821;52.202;0.154;2023-02-11T09:45:25;103604.06;;;9.26;87.29
70407;BME280;57821;52.202;0.154;2023-02-11T09:48:02;103618.09;;;9.31;87.14
70407;BME280;57821;52.202;0.154;2023-02-11T09:50:38;103615.66;;;9.34;87.31
70407;BME280;57821;52.202;0.154;2023-02-11T09:53:29;103615.72;;;9.35;87.08
70407;BME280;57821;52.202;0.154;2023-02-11T09:56:02;103614.97;;;9.38;86.76
70407;BME280;57821;52.202;0.154;2023-02-11T09:58:37;103612.38;;;9.38;86.84
70407;BME280;57821;52.202;0.154;2023-02-11T10:06:38;103623.69;;;9.40;86.82
70407;BME280;57821;52.202;0.154;2023-02-11T10:09:18;103616.91;;;9.42;86.56
70407;BME280;57821;52.202;0.154;2023-02-11T10:22:58;103613.50;;;9.43;86.31
70407;BME280;57821;52.202;0.154;2023-02-11T10:25:46;103623.28;;;9.50;85.72
70407;BME280;57821;52.202;0.154;2023-02-11T10:28:20;103621.75;;;9.54;86.13
70407;BME280;57821;52.202;0.154;2023-02-11T10:30:57;103625.38;;;9.57;86.05
70407;BME280;57821;52.202;0.154;2023-02-11T10:36:08;103629.31;;;9.68;86.02
70407;BME280;57821;52.202;0.154;2023-02-11T10:38:35;103613.97;;;9.73;85.80
70407;BME280;57821;52.202;0.154;2023-02-11T10:41:02;103616.94;;;9.80;85.59
70407;BME280;57821;52.202;0.154;2023-02-11T10:43:29;103618.16;;;9.88;85.13
70407;BME280;57821;52.202;0.154;2023-02-11T10:45:59;103620.22;;;9.96;84.92
70407;BME280;57821;52.202;0.154;2023-02-11T10:51:24;103633.84;;;10.11;85.26
70407;BME280;57821;52.202;0.154;2023-02-11T10:56:32;103631.25;;;10.30;84.41
70407;BME280;57821;52.202;0.154;2023-02-11T10:59:04;103630.00;;;10.41;83.72
70407;BME280;57821;52.202;0.154;2023-02-11T11:01:56;103626.97;;;10.51;83.41
70407;BME280;57821;52.202;0.154;2023-02-11T11:04:39;103638.56;;;10.59;83.63
70407;BME280;57821;52.202;0.154;2023-02-11T11:07:17;103637.97;;;10.66;83.37
70407;BME280;57821;52.202;0.154;2023-02-11T11:09:52;103638.13;;;10.69;83.15
70407;BME280;57821;52.202;0.154;2023-02-11T11:15:25;103641.84;;;10.76;82.39
70407;BME280;57821;52.202;0.154;2023-02-11T11:21:02;103640.25;;;10.80;81.20
70407;BME280;57821;52.202;0.154;2023-02-11T11:23:30;103639.69;;;10.87;81.62
70407;BME280;57821;52.202;0.154;2023-02-11T11:26:09;103632.88;;;10.89;81.32
70407;BME280;57821;52.202;0.154;2023-02-11T11:31:33;103651.00;;;11.09;81.12
70407;BME280;57821;52.202;0.154;2023-02-11T11:36:48;103650.66;;;11.23;80.50
70407;BME280;57821;52.202;0.154;2023-02-11T11:42:24;103656.53;;;11.39;79.48
70407;BME280;57821;52.202;0.154;2023-02-11T11:47:55;103652.78;;;11.55;79.01
70407;BME280;57821;52.202;0.154;2023-02-11T11:50:34;103648.94;;;11.68;77.44
70407;BME280;57821;52.202;0.154;2023-02-11T11:53:18;103640.59;;;11.75;77.95
70407;BME280;57821;52.202;0.154;2023-02-11T11:56:05;103643.50;;;11.84;77.67
70407;BME280;57821;52.202;0.154;2023-02-11T11:58:33;103649.94;;;11.93;78.07
70407;BME280;57821;52.202;0.154;2023-02-11T12:04:12;103645.34;;;12.10;76.52
70407;BME280;57821;52.202;0.154;2023-02-11T12:07:17;103646.56;;;12.20;75.51
70407;BME280;57821;52.202;0.154;2023-02-11T12:24:15;103636.19;;;12.47;73.89
70407;BME280;57821;52.202;0.154;2023-02-11T12:29:46;103635.53;;;12.52;72.69
70407;BME280;57821;52.202;0.154;2023-02-11T12:32:26;103628.53;;;12.50;72.48
70407;BME280;57821;52.202;0.154;2023-02-11T12:35:19;103624.06;;;12.46;72.46
70407;BME280;57821;52.202;0.154;2023-02-11T12:38:14;103632.47;;;12.39;72.36
70407;BME280;57821;52.202;0.154;2023-02-11T12:41:08;103637.56;;;12.35;71.80
70407;BME280;57821;52.202;0.154;2023-02-11T12:43:42;103623.44;;;12.29;72.04
70407;BME280;57821;52.202;0.154;2023-02-11T12:52:09;103632.00;;;12.25;69.18
70407;BME280;57821;52.202;0.154;2023-02-11T12:57:20;103627.31;;;12.15;69.25
70407;BME280;57821;52.202;0.154;2023-02-11T13:02:38;103626.13;;;12.07;68.00
70407;BME280;57821;52.202;0.154;2023-02-11T13:07:54;103609.19;;;11.94;67.75
70407;BME280;57821;52.202;0.154;2023-02-11T13:12:51;103615.19;;;11.91;67.48
70407;BME280;57821;52.202;0.154;2023-02-11T13:15:19;103617.88;;;11.93;68.28
70407;BME280;57821;52.202;0.154;2023-02-11T13:17:56;103623.00;;;11.91;67.27
70407;BME280;57821;52.202;0.154;2023-02-11T13:20:44;103623.75;;;11.89;66.77
70407;BME280;57821;52.202;0.154;2023-02-11T13:23:43;103611.41;;;11.82;65.81
70407;BME280;57821;52.202;0.154;2023-02-11T13:26:32;103620.00;;;11.81;66.77
70407;BME280;57821;52.202;0.154;2023-02-11T13:32:09;103614.66;;;11.76;66.55
70407;BME280;57821;52.202;0.154;2023-02-11T13:37:30;103621.59;;;11.77;66.49
70407;BME280;57821;52.202;0.154;2023-02-11T13:40:01;103620.03;;;11.82;67.13
70407;BME280;57821;52.202;0.154;2023-02-11T13:42:29;103613.03;;;11.80;66.36
70407;BME280;57821;52.202;0.154;2023-02-11T13:44:57;103619.34;;;11.86;66.67
70407;BME280;57821;52.202;0.154;2023-02-11T13:47:30;103621.13;;;11.87;66.05
70407;BME280;57821;52.202;0.154;2023-02-11T13:49:59;103627.31;;;11.91;66.39
70407;BME280;57821;52.202;0.154;2023-02-11T13:52:35;103622.13;;;11.91;65.57
70407;BME280;57821;52.202;0.154;2023-02-11T13:57:39;103615.41;;;11.98;65.81
70407;BME280;57821;52.202;0.154;2023-02-11T14:00:46;103617.97;;;11.96;64.01
70407;BME280;57821;52.202;0.154;2023-02-11T14:03:29;103623.09;;;11.94;63.77
70407;BME280;57821;52.202;0.154;2023-02-11T14:08:35;103615.25;;;11.93;64.65
70407;BME280;57821;52.202;0.154;2023-02-11T14:11:10;103610.75;;;11.89;64.57
70407;BME280;57821;52.202;0.154;2023-02-11T14:19:35;103608.00;;;11.84;64.09
70407;BME280;57821;52.202;0.154;2023-02-11T14:22:03;103615.72;;;11.83;63.87
70407;BME280;57821;52.202;0.154;2023-02-11T14:29:52;103612.00;;;11.75;63.67
70407;BME280;57821;52.202;0.154;2023-02-11T14:35:37;103605.97;;;11.76;64.01
70407;BME280;57821;52.202;0.154;2023-02-11T14:38:18;103605.09;;;11.75;63.95
70407;BME280;57821;52.202;0.154;2023-02-11T14:40:55;103612.00;;;11.75;64.35
70407;BME280;57821;52.202;0.154;2023-02-11T14:43:27;103608.34;;;11.71;64.02
70407;BME280;57821;52.202;0.154;2023-02-11T14:45:57;103602.16;;;11.68;64.25
70407;BME280;57821;52.202;0.154;2023-02-11T14:48:32;103614.34;;;11.69;64.48
70407;BME280;57821;52.202;0.154;2023-02-11T14:51:09;103614.19;;;11.66;63.99
70407;BME280;57821;52.202;0.154;2023-02-11T14:53:42;103605.34;;;11.61;63.79
70407;BME280;57821;52.202;0.154;2023-02-11T14:56:26;103620.25;;;11.65;64.05
70407;BME280;57821;52.202;0.154;2023-02-11T14:58:54;103609.00;;;11.66;64.27
70407;BME280;57821;52.202;0.154;2023-02-11T15:01:33;103608.13;;;11.65;63.69
70407;BME280;57821;52.202;0.154;2023-02-11T15:04:03;103606.41;;;11.66;64.36
70407;BME280;57821;52.202;0.154;2023-02-11T15:06:31;103608.13;;;11.65;63.76
70407;BME280;57821;52.202;0.154;2023-02-11T15:09:12;103617.66;;;11.65;63.52
70407;BME280;57821;52.202;0.154;2023-02-11T15:11:41;103615.06;;;11.65;63.72
70407;BME280;57821;52.202;0.154;2023-02-11T15:14:17;103604.47;;;11.60;63.75
70407;BME280;57821;52.202;0.154;2023-02-11T15:16:45;103608.97;;;11.64;64.47
70407;BME280;57821;52.202;0.154;2023-02-11T15:19:29;103612.41;;;11.63;64.47
70407;BME280;57821;52.202;0.154;2023-02-11T15:22:00;103615.88;;;11.64;64.30
70407;BME280;57821;52.202;0.154;2023-02-11T15:24:31;103606.06;;;11.57;63.67
70407;BME280;57821;52.202;0.154;2023-02-11T15:27:03;103628.69;;;11.59;63.37
70407;BME280;57821;52.202;0.154;2023-02-11T15:29:37;103621.50;;;11.52;63.32
70407;BME280;57821;52.202;0.154;2023-02-11T15:32:15;103604.25;;;11.54;63.77
70407;BME280;57821;52.202;0.154;2023-02-11T15:34:44;103603.34;;;11.53;63.87
70407;BME280;57821;52.202;0.154;2023-02-11T15:37:28;103619.66;;;11.49;63.08